Time;durP1;ratioP1;P1;durP2;ratioP2;P2;SDS_P1;SDS_P2;PMS_P1;PMS_P2;Temp;Humidity;BMP_temperature;BMP_pressure;BME280_temperature;BME280_humidity;BME280_pressure;Samples;Min_cycle;Max_cycle;Signal;HPM_P1;HPM_P2
2022/06/22 00:00:03;;;;;;;;;;;;;;;24.51;51.20;99178.75;7315426;19;130476;-40
2022/06/22 00:02:30;;;;;;;;;;;;;;;24.52;51.07;99177.75;7314763;19;130770;-33
2022/06/22 00:04:58;;;;;;;;;;;;;;;24.51;51.03;99176.13;7314973;19;128873;-33
2022/06/22 00:07:26;;;;;;;;;;;;;;;24.51;51.17;99170.88;7314565;19;129235;-36
2022/06/22 00:09:55;;;;;;;;;;;;;;;24.52;50.69;99177.75;7315225;19;130284;-33
2022/06/22 00:12:28;;;;;;;;;;;;;;;24.51;51.21;99173.50;7315112;19;130393;-39
2022/06/22 00:14:54;;;;;;;;;;;;;;;24.51;50.85;99181.38;7314514;19;129201;-39
2022/06/22 00:17:22;;;;;;;;;;;;;;;24.52;51.62;99173.31;7313693;19;129254;-40
2022/06/22 00:19:48;;;;;;;;;;;;;;;24.51;51.62;99176.13;7314603;19;129758;-37
2022/06/22 00:22:18;;;;;;;;;;;;;;;24.52;51.49;99172.50;7313397;19;131209;-36
2022/06/22 00:24:43;;;;;;;;;;;;;;;24.51;51.11;99171.66;7314396;19;129093;-34
2022/06/22 00:27:27;;;;;;;;;;;;;;;24.51;50.60;99170.88;7312210;19;128854;-34
2022/06/22 00:30:10;;;;;;;;;;;;;;;24.52;51.20;99165.44;7314316;19;130689;-35
2022/06/22 00:32:35;;;;;;;;;;;;;;;24.53;51.49;99168.91;7314028;19;130400;-35
2022/06/22 00:35:19;;;;;;;;;;;;;;;24.52;50.95;99161.97;7313676;19;128909;-39
2022/06/22 00:37:44;;;;;;;;;;;;;;;24.51;51.33;99160.34;7311588;19;129047;-33
2022/06/22 00:40:15;;;;;;;;;;;;;;;24.52;51.26;99159.34;7313812;19;129634;-37
2022/06/22 00:42:46;;;;;;;;;;;;;;;24.51;51.42;99160.34;7311920;19;130727;-34
2022/06/22 00:45:21;;;;;;;;;;;;;;;24.52;51.28;99161.97;7312886;19;129122;-35
2022/06/22 00:47:53;;;;;;;;;;;;;;;23.97;44.70;99154.00;7311812;19;129463;-33
2022/06/22 00:50:21;;;;;;;;;;;;;;;24.03;50.39;99135.81;7313451;19;129990;-31
2022/06/22 00:52:46;;;;;;;;;;;;;;;24.31;50.73;99150.19;7313319;19;129300;-34
2022/06/22 00:55:26;;;;;;;;;;;;;;;24.32;50.60;99133.47;7313496;19;129979;-34
2022/06/22 00:58:07;;;;;;;;;;;;;;;24.43;50.93;99135.72;7312013;19;129793;-33
2022/06/22 01:00:35;;;;;;;;;;;;;;;24.45;50.98;99131.13;7314726;19;130337;-32
2022/06/22 01:03:26;;;;;;;;;;;;;;;24.48;50.82;99134.41;7312351;19;129793;-38
2022/06/22 01:05:53;;;;;;;;;;;;;;;24.46;51.52;99127.50;7309879;19;129444;-39
2022/06/22 01:08:31;;;;;;;;;;;;;;;24.47;51.25;99125.69;7312269;19;130124;-36
2022/06/22 01:12:16;;;;;;;;;;;;;;;24.48;50.71;99121.28;7312998;19;130170;-32
2022/06/22 01:13:54;;;;;;;;;;;;;;;24.48;51.46;99128.16;7312894;19;130189;-38
2022/06/22 01:16:31;;;;;;;;;;;;;;;24.48;51.52;99104.50;7312114;19;129853;-35
2022/06/22 01:19:00;;;;;;;;;;;;;;;24.48;51.51;99108.13;7313395;19;130402;-34
2022/06/22 01:21:28;;;;;;;;;;;;;;;24.43;50.73;99096.31;7312648;19;129575;-31
2022/06/22 01:24:02;;;;;;;;;;;;;;;24.48;51.52;99095.00;7313215;19;129640;-34
2022/06/22 01:26:30;;;;;;;;;;;;;;;24.48;50.83;99085.28;7312220;19;129567;-30
2022/06/22 01:29:01;;;;;;;;;;;;;;;24.48;50.98;99089.75;7313226;19;130276;-36
2022/06/22 01:31:27;;;;;;;;;;;;;;;24.48;51.53;99089.75;7312015;19;128954;-37
2022/06/22 01:33:54;;;;;;;;;;;;;;;24.47;50.68;99086.28;7312373;19;130471;-36
2022/06/22 01:36:22;;;;;;;;;;;;;;;24.49;51.43;99087.72;7312170;19;129740;-35
2022/06/22 01:38:47;;;;;;;;;;;;;;;24.48;51.23;99092.38;7313033;19;129783;-35
2022/06/22 01:41:21;;;;;;;;;;;;;;;24.48;50.72;99097.63;7311962;19;130414;-37
2022/06/22 01:43:51;;;;;;;;;;;;;;;24.48;51.15;99094.00;7313557;19;129619;-39
2022/06/22 01:46:22;;;;;;;;;;;;;;;24.40;51.29;99080.06;7310193;19;129104;-37
2022/06/22 01:49:03;;;;;;;;;;;;;;;24.46;50.96;99080.19;7312354;19;129908;-31
2022/06/22 01:51:31;;;;;;;;;;;;;;;24.49;51.44;99071.16;7312029;19;129991;-33
2022/06/22 01:54:16;;;;;;;;;;;;;;;23.81;44.14;99062.97;7317999;19;130325;-39
2022/06/22 01:56:45;;;;;;;;;;;;;;;24.06;50.36;99061.97;7325772;19;130004;-35
2022/06/22 01:59:23;;;;;;;;;;;;;;;24.31;51.38;99086.34;7326430;19;129905;-32
2022/06/22 02:01:57;;;;;;;;;;;;;;;24.38;50.86;99088.13;7326305;19;130180;-36
2022/06/22 02:04:23;;;;;;;;;;;;;;;24.41;51.01;99085.16;7325625;19;129513;-36
2022/06/22 02:09:47;;;;;;;;;;;;;;;24.42;51.39;99078.91;7326744;19;129596;-35
2022/06/22 02:12:18;;;;;;;;;;;;;;;24.44;50.73;99076.91;7325927;19;129514;-35
2022/06/22 02:14:48;;;;;;;;;;;;;;;24.34;51.42;99076.31;7325154;19;129076;-38
2022/06/22 02:17:16;;;;;;;;;;;;;;;24.36;51.05;99079.56;7324393;19;129523;-35
2022/06/22 02:19:42;;;;;;;;;;;;;;;24.46;51.37;99100.41;7325570;19;130694;-36
2022/06/22 02:22:09;;;;;;;;;;;;;;;24.46;51.43;99095.97;7325332;19;130450;-39
2022/06/22 02:24:44;;;;;;;;;;;;;;;24.44;50.88;99095.31;7326008;19;130290;-36
2022/06/22 02:27:13;;;;;;;;;;;;;;;24.45;50.84;99094.34;7322924;19;129121;-32
2022/06/22 02:29:43;;;;;;;;;;;;;;;24.43;51.35;99091.06;7324613;19;129561;-34
2022/06/22 02:32:16;;;;;;;;;;;;;;;24.45;51.48;99091.72;7325730;19;129598;-35
2022/06/22 02:34:43;;;;;;;;;;;;;;;24.45;51.46;99091.72;7324659;19;130477;-35
2022/06/22 02:37:09;;;;;;;;;;;;;;;24.46;51.46;99089.91;7324589;19;129951;-41
2022/06/22 02:39:37;;;;;;;;;;;;;;;24.44;50.93;99090.06;7325321;19;129341;-40
2022/06/22 02:44:48;;;;;;;;;;;;;;;24.48;51.36;99081.84;7323934;19;128955;-32
2022/06/22 02:47:29;;;;;;;;;;;;;;;24.48;51.51;99075.59;7321485;19;129288;-34
2022/06/22 02:49:54;;;;;;;;;;;;;;;24.48;51.20;99072.97;7323818;19;130253;-38
2022/06/22 02:52:21;;;;;;;;;;;;;;;24.46;51.64;99080.19;7319967;19;130278;-37
2022/06/22 02:54:48;;;;;;;;;;;;;;;24.47;50.91;99065.25;7323837;19;130202;-36
2022/06/22 02:57:16;;;;;;;;;;;;;;;24.45;51.56;99065.44;7322603;19;129083;-33
2022/06/22 02:59:42;;;;;;;;;;;;;;;23.90;44.62;99064.56;7323638;19;130917;-32
2022/06/22 03:02:07;;;;;;;;;;;;;;;24.02;50.56;99071.16;7323454;19;130199;-38
2022/06/22 03:04:33;;;;;;;;;;;;;;;24.24;51.17;99072.25;7324591;19;130473;-33
2022/06/22 03:06:59;;;;;;;;;;;;;;;24.33;51.48;99077.28;7314359;19;129145;-33
2022/06/22 03:09:26;;;;;;;;;;;;;;;24.38;50.68;99066.25;7316942;19;129086;-40
2022/06/22 03:11:53;;;;;;;;;;;;;;;24.39;50.79;99076.59;7315926;19;130885;-33
2022/06/22 03:14:22;;;;;;;;;;;;;;;24.40;50.89;99069.56;7315860;19;129217;-30
2022/06/22 03:16:50;;;;;;;;;;;;;;;24.36;51.20;99058.56;7316359;19;129353;-40
2022/06/22 03:19:18;;;;;;;;;;;;;;;24.42;50.46;99052.63;7315328;19;128811;-37
2022/06/22 03:21:44;;;;;;;;;;;;;;;24.40;51.14;99049.34;7316627;19;131958;-37
2022/06/22 03:24:14;;;;;;;;;;;;;;;24.42;51.17;99057.91;7316150;19;132213;-33
2022/06/22 03:26:50;;;;;;;;;;;;;;;24.43;51.46;99054.25;7315328;19;128959;-33
2022/06/22 03:29:32;;;;;;;;;;;;;;;24.42;51.69;99054.44;7315817;19;129000;-30
2022/06/22 03:32:03;;;;;;;;;;;;;;;24.42;51.41;99057.91;7316682;19;131031;-32
2022/06/22 03:34:40;;;;;;;;;;;;;;;24.42;51.68;99059.69;7317053;19;129267;-35
2022/06/22 03:37:19;;;;;;;;;;;;;;;24.33;50.96;99042.31;7314817;19;129088;-34
2022/06/22 03:39:47;;;;;;;;;;;;;;;24.42;51.10;99063.16;7316322;19;129559;-37
2022/06/22 03:42:16;;;;;;;;;;;;;;;24.40;51.58;99067.75;7314993;19;130560;-43
2022/06/22 03:44:49;;;;;;;;;;;;;;;24.34;51.75;99054.47;7315273;19;130612;-32
2022/06/22 03:47:17;;;;;;;;;;;;;;;24.40;51.01;99061.66;7311568;19;131074;-32
2022/06/22 03:49:57;;;;;;;;;;;;;;;24.41;51.08;99065.94;7314291;19;129246;-41
2022/06/22 03:52:36;;;;;;;;;;;;;;;24.40;51.02;99065.13;7313295;19;130263;-38
2022/06/22 03:55:04;;;;;;;;;;;;;;;24.39;51.99;99063.47;7314483;19;131708;-36
2022/06/22 03:57:33;;;;;;;;;;;;;;;24.43;51.46;99056.06;7312051;19;129981;-47
2022/06/22 03:59:58;;;;;;;;;;;;;;;24.42;51.38;99060.53;7313481;19;131380;-30
2022/06/22 04:02:24;;;;;;;;;;;;;;;24.38;51.88;99056.59;7314109;19;130204;-43
2022/06/22 04:04:52;;;;;;;;;;;;;;;23.84;44.68;99052.13;7313729;19;130731;-33
2022/06/22 04:07:17;;;;;;;;;;;;;;;24.03;51.40;99050.97;7310952;19;129033;-45
2022/06/22 04:09:48;;;;;;;;;;;;;;;24.20;51.25;99050.75;7312441;19;129564;-32
2022/06/22 04:12:19;;;;;;;;;;;;;;;24.30;50.71;99046.09;7311067;19;130151;-41
2022/06/22 04:14:52;;;;;;;;;;;;;;;24.31;51.05;99050.38;7314843;19;129354;-34
2022/06/22 04:17:24;;;;;;;;;;;;;;;24.36;51.11;99048.03;7311613;19;130244;-40
2022/06/22 04:20:14;;;;;;;;;;;;;;;24.32;50.69;99051.19;7312949;19;129133;-32
2022/06/22 04:22:41;;;;;;;;;;;;;;;24.35;50.85;99051.69;7314238;19;130349;-35
2022/06/22 04:25:24;;;;;;;;;;;;;;;24.35;50.59;99045.59;7312332;19;129634;-33
2022/06/22 04:27:51;;;;;;;;;;;;;;;24.35;51.49;99042.97;7311197;19;129597;-35
2022/06/22 04:30:21;;;;;;;;;;;;;;;24.37;51.77;99047.06;7312628;19;129169;-41
2022/06/22 04:33:06;;;;;;;;;;;;;;;24.37;51.17;99044.44;7314587;19;130186;-33
2022/06/22 04:35:38;;;;;;;;;;;;;;;24.37;51.34;99054.97;7311022;19;130470;-39
2022/06/22 04:38:09;;;;;;;;;;;;;;;24.37;51.68;99049.69;7312338;19;130417;-35
2022/06/22 04:40:34;;;;;;;;;;;;;;;24.26;50.15;99029.03;7312254;19;129831;-37
2022/06/22 04:43:02;;;;;;;;;;;;;;;24.36;50.95;99045.41;7310650;19;130906;-34
2022/06/22 04:45:30;;;;;;;;;;;;;;;24.35;50.98;99048.22;7310380;19;131110;-39
2022/06/22 04:48:03;;;;;;;;;;;;;;;24.32;50.79;99044.13;7311212;19;129514;-34
2022/06/22 04:50:29;;;;;;;;;;;;;;;24.33;51.55;99043.13;7314139;19;129975;-40
2022/06/22 04:52:55;;;;;;;;;;;;;;;24.36;51.57;99042.78;7312366;19;130017;-31
2022/06/22 04:55:23;;;;;;;;;;;;;;;24.35;51.15;99046.41;7312084;19;130460;-33
2022/06/22 04:57:50;;;;;;;;;;;;;;;24.34;51.00;99044.78;7309728;19;129031;-31
2022/06/22 05:00:17;;;;;;;;;;;;;;;24.32;50.35;99041.50;7311963;19;129480;-34
2022/06/22 05:02:44;;;;;;;;;;;;;;;24.32;51.47;99041.50;7308545;19;129621;-32
2022/06/22 05:05:15;;;;;;;;;;;;;;;24.30;51.14;99038.22;7312881;19;130866;-36
2022/06/22 05:07:52;;;;;;;;;;;;;;;24.22;51.41;99022.50;7308494;19;129405;-37
2022/06/22 05:10:20;;;;;;;;;;;;;;;24.30;50.78;99037.41;7312007;19;129490;-34
2022/06/22 05:12:45;;;;;;;;;;;;;;;24.31;51.21;99039.84;7310492;19;130054;-38
2022/06/22 05:15:17;;;;;;;;;;;;;;;23.95;46.04;99045.69;7310888;19;130620;-32
2022/06/22 05:17:42;;;;;;;;;;;;;;;23.78;49.93;99046.72;7310398;19;129098;-41
2022/06/22 05:20:13;;;;;;;;;;;;;;;24.07;51.39;99047.84;7312041;19;129689;-36
2022/06/22 05:22:38;;;;;;;;;;;;;;;24.18;50.43;99059.78;7311906;19;129527;-35
2022/06/22 05:25:05;;;;;;;;;;;;;;;24.22;51.08;99040.91;7311050;19;130220;-34
2022/06/22 05:27:34;;;;;;;;;;;;;;;24.26;51.52;99050.06;7309439;19;130099;-41
2022/06/22 05:30:09;;;;;;;;;;;;;;;24.25;51.49;99043.19;7310457;19;129636;-36
2022/06/22 05:32:42;;;;;;;;;;;;;;;24.26;51.07;99047.44;7313046;19;130856;-28
2022/06/22 05:35:12;;;;;;;;;;;;;;;24.26;51.27;99047.44;7312800;19;129105;-33
2022/06/22 05:37:40;;;;;;;;;;;;;;;24.20;51.12;99048.13;7309084;19;129203;-37
2022/06/22 05:40:06;;;;;;;;;;;;;;;24.28;51.63;99061.22;7305216;19;129113;-45
2022/06/22 05:42:32;;;;;;;;;;;;;;;24.15;51.63;99034.66;7297733;19;131056;-38
2022/06/22 05:44:58;;;;;;;;;;;;;;;24.28;51.93;99053.34;7311617;19;130812;-42
2022/06/22 05:47:28;;;;;;;;;;;;;;;24.28;51.72;99058.59;7303132;19;128856;-34
2022/06/22 05:50:00;;;;;;;;;;;;;;;24.30;51.84;99061.88;7309937;19;129374;-31
2022/06/22 05:52:25;;;;;;;;;;;;;;;24.30;51.97;99053.16;7306798;19;130380;-35
2022/06/22 05:54:57;;;;;;;;;;;;;;;24.29;51.46;99055.00;7308508;19;129156;-41
2022/06/22 05:57:27;;;;;;;;;;;;;;;24.28;51.40;99053.34;7308450;19;129447;-40
2022/06/22 06:00:02;;;;;;;;;;;;;;;24.30;51.32;99050.53;7309715;19;128680;-31
2022/06/22 06:02:38;;;;;;;;;;;;;;;24.27;51.05;99035.94;7310854;19;132329;-37
2022/06/22 06:05:13;;;;;;;;;;;;;;;24.28;51.56;99034.94;7310127;19;129872;-37
2022/06/22 06:07:57;;;;;;;;;;;;;;;24.26;51.95;99047.44;7307166;19;129079;-35
2022/06/22 06:10:25;;;;;;;;;;;;;;;24.28;52.27;99045.47;7311098;19;129391;-33
2022/06/22 06:13:01;;;;;;;;;;;;;;;24.29;51.68;99043.66;7309543;19;130723;-37
2022/06/22 06:15:29;;;;;;;;;;;;;;;24.29;51.77;99036.59;7311074;19;130198;-35
2022/06/22 06:17:57;;;;;;;;;;;;;;;24.27;51.72;99038.56;7306529;19;129236;-36
2022/06/22 06:20:25;;;;;;;;;;;;;;;24.13;47.59;99046.34;7309623;19;129089;-35
2022/06/22 06:22:53;;;;;;;;;;;;;;;23.59;45.24;99033.94;7310304;19;129244;-38
2022/06/22 06:28:09;;;;;;;;;;;;;;;24.12;51.51;99050.78;7307003;19;129565;-35
2022/06/22 06:30:41;;;;;;;;;;;;;;;24.18;52.10;99054.53;7304860;19;129205;-31
2022/06/22 06:33:12;;;;;;;;;;;;;;;24.18;51.83;99055.34;7308522;19;130305;-42
2022/06/22 06:35:44;;;;;;;;;;;;;;;24.12;51.68;99035.00;7307707;19;131225;-36
2022/06/22 06:38:28;;;;;;;;;;;;;;;24.22;51.78;99051.41;7304603;19;129079;-34
2022/06/22 06:40:54;;;;;;;;;;;;;;;24.15;51.88;99047.81;7308912;19;129140;-35
2022/06/22 06:43:37;;;;;;;;;;;;;;;24.24;51.49;99059.09;7314769;19;129672;-37
2022/06/22 06:46:11;;;;;;;;;;;;;;;24.24;52.15;99056.47;7316967;19;129658;-41
2022/06/22 06:48:37;;;;;;;;;;;;;;;24.27;51.59;99062.22;7315194;19;129483;-32
2022/06/22 06:51:03;;;;;;;;;;;;;;;24.16;48.43;99062.56;7315011;19;131300;-37
2022/06/22 06:53:35;;;;;;;;;;;;;;;24.14;47.37;99064.56;7298193;19;131455;-34
2022/06/22 06:56:13;;;;;;;;;;;;;;;24.21;47.66;99062.88;7309614;19;130956;-39
2022/06/22 06:58:42;;;;;;;;;;;;;;;24.33;47.49;99060.69;7307165;19;129664;-34
2022/06/22 07:01:13;;;;;;;;;;;;;;;24.34;49.04;99065.81;7307524;19;129244;-40
2022/06/22 07:03:41;;;;;;;;;;;;;;;24.37;49.53;99064.63;7301148;19;131064;-42
2022/06/22 07:06:06;;;;;;;;;;;;;;;24.38;49.98;99072.34;7308368;19;129964;-32
2022/06/22 07:08:34;;;;;;;;;;;;;;;24.43;51.42;99064.78;7307814;19;129231;-37
2022/06/22 07:11:10;;;;;;;;;;;;;;;24.39;50.87;99068.72;7308555;19;130856;-40
2022/06/22 07:13:46;;;;;;;;;;;;;;;24.36;51.42;99060.38;7307910;19;131257;-34
2022/06/22 07:16:14;;;;;;;;;;;;;;;24.43;51.43;99061.31;7309288;19;133279;-38
2022/06/22 07:18:42;;;;;;;;;;;;;;;24.48;51.32;99065.09;7313618;19;129793;-35
2022/06/22 07:21:20;;;;;;;;;;;;;;;24.48;51.46;99059.00;7314839;19;128849;-34
2022/06/22 07:23:48;;;;;;;;;;;;;;;24.48;52.13;99061.63;7315389;19;129479;-35
2022/06/22 07:26:29;;;;;;;;;;;;;;;24.48;51.91;99050.31;7311564;19;129880;-34
2022/06/22 07:28:59;;;;;;;;;;;;;;;24.54;52.25;99054.88;7313781;19;129859;-36
2022/06/22 07:31:35;;;;;;;;;;;;;;;24.54;51.87;99052.25;7314541;19;129557;-35
2022/06/22 07:34:04;;;;;;;;;;;;;;;24.56;51.84;99045.03;7314603;19;130323;-37
2022/06/22 07:36:31;;;;;;;;;;;;;;;24.56;52.06;99052.91;7313345;19;130209;-39
2022/06/22 07:39:01;;;;;;;;;;;;;;;24.45;52.16;99041.78;7313402;19;129326;-33
2022/06/22 07:41:29;;;;;;;;;;;;;;;24.54;51.66;99045.19;7314718;19;129280;-36
2022/06/22 07:44:00;;;;;;;;;;;;;;;24.56;51.69;99047.66;7313299;19;129264;-36
2022/06/22 07:46:29;;;;;;;;;;;;;;;24.54;51.54;99045.19;7312581;19;130838;-37
2022/06/22 07:48:58;;;;;;;;;;;;;;;24.54;51.82;99039.13;7312512;19;129681;-37
2022/06/22 07:51:26;;;;;;;;;;;;;;;24.50;51.73;99038.63;7312561;19;129457;-34
2022/06/22 07:53:55;;;;;;;;;;;;;;;24.52;52.53;99052.41;7310179;19;132345;-39
2022/06/22 07:56:29;;;;;;;;;;;;;;;24.51;51.80;99042.88;7310637;19;129260;-35
2022/06/22 07:58:57;;;;;;;;;;;;;;;24.52;51.99;99051.59;7308438;19;129062;-35
2022/06/22 08:01:29;;;;;;;;;;;;;;;24.50;51.71;99043.88;7308928;19;129127;-40
2022/06/22 08:04:14;;;;;;;;;;;;;;;24.52;52.59;99041.09;7311773;19;130018;-32
2022/06/22 08:06:43;;;;;;;;;;;;;;;24.51;52.23;99042.09;7308980;19;131514;-41
2022/06/22 08:09:17;;;;;;;;;;;;;;;24.52;51.90;99041.09;7309831;19;129089;-39
2022/06/22 08:11:46;;;;;;;;;;;;;;;24.50;51.96;99033.38;7310833;19;129595;-38
2022/06/22 08:14:18;;;;;;;;;;;;;;;24.49;52.69;99032.53;7311696;19;129636;-37
2022/06/22 08:16:48;;;;;;;;;;;;;;;24.52;52.70;99035.81;7305165;19;129277;-39
2022/06/22 08:19:14;;;;;;;;;;;;;;;24.51;52.54;99023.69;7313035;19;129355;-32
2022/06/22 08:21:44;;;;;;;;;;;;;;;24.49;52.07;99032.53;7312431;19;128928;-34
2022/06/22 08:24:11;;;;;;;;;;;;;;;24.49;52.96;99019.41;7308485;19;130814;-33
2022/06/22 08:26:37;;;;;;;;;;;;;;;24.49;52.05;99023.88;7310016;19;130174;-34
2022/06/22 08:29:02;;;;;;;;;;;;;;;24.46;52.52;99032.91;7310651;19;129662;-43
2022/06/22 08:31:30;;;;;;;;;;;;;;;24.48;52.51;99024.03;7307026;19;130044;-31
2022/06/22 08:33:58;;;;;;;;;;;;;;;24.51;53.03;99028.94;7312209;19;129997;-33
2022/06/22 08:36:31;;;;;;;;;;;;;;;24.47;52.57;99020.59;7312256;19;130474;-35
2022/06/22 08:39:17;;;;;;;;;;;;;;;24.49;52.37;99016.78;7312125;19;129535;-34
2022/06/22 08:41:56;;;;;;;;;;;;;;;24.48;52.76;99015.16;7312002;19;129705;-37
2022/06/22 08:44:40;;;;;;;;;;;;;;;24.39;52.31;98989.91;7310888;19;131062;-31
2022/06/22 08:47:15;;;;;;;;;;;;;;;24.37;52.91;98997.16;7311079;19;130281;-40
2022/06/22 08:49:54;;;;;;;;;;;;;;;24.45;52.36;99015.50;7309540;19;129263;-31
2022/06/22 08:52:37;;;;;;;;;;;;;;;24.48;52.81;99024.84;7308265;19;129502;-32
2022/06/22 08:55:08;;;;;;;;;;;;;;;24.45;52.43;99015.50;7309470;19;130186;-40
2022/06/22 08:57:52;;;;;;;;;;;;;;;24.45;52.45;99015.50;7309114;19;130336;-35
2022/06/22 09:00:19;;;;;;;;;;;;;;;24.45;52.43;99005.00;7312307;19;129149;-36
2022/06/22 09:03:04;;;;;;;;;;;;;;;24.44;52.98;99005.97;7310393;19;129015;-32
2022/06/22 09:05:35;;;;;;;;;;;;;;;24.46;52.49;99005.81;7311581;19;130926;-39
2022/06/22 09:08:10;;;;;;;;;;;;;;;24.46;52.94;99005.81;7307056;19;129797;-40
2022/06/22 09:10:54;;;;;;;;;;;;;;;24.47;52.79;99004.81;7311034;19;129703;-32
2022/06/22 09:13:19;;;;;;;;;;;;;;;24.46;52.77;99004.00;7306357;19;129215;-33
2022/06/22 09:15:50;;;;;;;;;;;;;;;24.48;52.95;99005.66;7312901;19;130618;-32
2022/06/22 09:18:16;;;;;;;;;;;;;;;24.46;52.68;99001.34;7307987;19;129424;-34
2022/06/22 09:20:53;;;;;;;;;;;;;;;24.44;52.98;98998.06;7310815;19;129187;-37
2022/06/22 09:23:42;;;;;;;;;;;;;;;24.45;52.67;98999.72;7311837;19;129821;-37
2022/06/22 09:26:10;;;;;;;;;;;;;;;24.38;53.40;98985.63;7308639;19;130695;-32
2022/06/22 09:28:35;;;;;;;;;;;;;;;24.48;53.06;99003.00;7311746;19;130294;-30
2022/06/22 09:31:20;;;;;;;;;;;;;;;24.45;53.26;99005.00;7310413;19;129172;-36
2022/06/22 09:34:04;;;;;;;;;;;;;;;24.40;53.27;99002.06;7311407;19;129967;-36
2022/06/22 09:36:30;;;;;;;;;;;;;;;24.45;53.01;99010.25;7311622;19;131118;-32
2022/06/22 09:39:04;;;;;;;;;;;;;;;24.44;53.02;99013.84;7306825;19;131642;-37
2022/06/22 09:41:30;;;;;;;;;;;;;;;24.45;53.12;99015.50;7306324;19;129175;-35
2022/06/22 09:43:55;;;;;;;;;;;;;;;24.46;52.84;99016.34;7310177;19;129223;-37
2022/06/22 09:46:39;;;;;;;;;;;;;;;24.46;52.66;99027.63;7309167;19;130310;-32
2022/06/22 09:49:13;;;;;;;;;;;;;;;24.48;52.80;99029.28;7299764;19;129604;-44
2022/06/22 09:51:41;;;;;;;;;;;;;;;24.48;53.15;99025.66;7309351;19;129425;-33
2022/06/22 09:57:02;;;;;;;;;;;;;;;24.46;52.94;99043.41;7309148;19;129749;-36
2022/06/22 09:59:36;;;;;;;;;;;;;;;24.46;52.77;99048.66;7308076;19;130218;-34
2022/06/22 10:02:06;;;;;;;;;;;;;;;24.40;52.98;99038.84;7311168;19;129083;-33
2022/06/22 10:04:50;;;;;;;;;;;;;;;24.46;53.56;99046.03;7307241;19;129722;-37
2022/06/22 10:07:18;;;;;;;;;;;;;;;24.47;53.01;99038.97;7305031;19;130255;-39
2022/06/22 10:09:43;;;;;;;;;;;;;;;24.46;53.30;99040.78;7308125;19;130369;-38
2022/06/22 10:12:27;;;;;;;;;;;;;;;24.48;53.22;99045.06;7305901;19;129309;-41
2022/06/22 10:15:03;;;;;;;;;;;;;;;24.48;52.90;99034.56;7311710;19;129072;-35
2022/06/22 10:17:53;;;;;;;;;;;;;;;24.46;52.93;99043.41;7312027;19;129519;-44
2022/06/22 10:20:30;;;;;;;;;;;;;;;24.44;53.67;99032.25;7312843;19;129571;-38
2022/06/22 10:23:05;;;;;;;;;;;;;;;24.45;53.51;99026.00;7316171;19;130041;-35
2022/06/22 10:25:36;;;;;;;;;;;;;;;24.46;53.12;99035.53;7314173;19;129545;-40
2022/06/22 10:28:08;;;;;;;;;;;;;;;24.35;52.90;99014.91;7312572;19;130251;-37
2022/06/22 10:30:33;;;;;;;;;;;;;;;24.45;53.10;99026.00;7315798;19;130919;-30
2022/06/22 10:32:58;;;;;;;;;;;;;;;24.46;53.24;99030.25;7316967;19;130589;-35
2022/06/22 10:35:24;;;;;;;;;;;;;;;24.48;52.50;99024.84;7316758;19;129401;-35
2022/06/22 10:38:01;;;;;;;;;;;;;;;24.48;52.60;99020.41;7314115;19;130407;-36
2022/06/22 10:46:43;;;;;;;;;;;;;;;24.45;51.71;99019.94;7315523;19;129401;-38
2022/06/22 10:49:27;;;;;;;;;;;;;;;24.45;52.01;99010.25;7314002;19;129621;-41
2022/06/22 10:51:55;;;;;;;;;;;;;;;24.39;51.66;99005.66;7315374;19;130912;-32
2022/06/22 10:54:28;;;;;;;;;;;;;;;24.45;51.80;99015.50;7314992;19;129327;-29
2022/06/22 10:57:23;;;;;;;;;;;;;;;24.45;51.68;99020.75;7312098;19;129315;-34
2022/06/22 10:59:48;;;;;;;;;;;;;;;24.48;51.24;99024.03;7311266;19;130109;-32
2022/06/22 11:02:20;;;;;;;;;;;;;;;24.46;51.99;99022.38;7307388;19;129674;-38
2022/06/22 11:05:17;;;;;;;;;;;;;;;24.46;51.77;99029.47;7314644;19;129092;-35
2022/06/22 11:07:58;;;;;;;;;;;;;;;24.47;51.62;99023.22;7301666;19;129802;-36
2022/06/22 11:10:29;;;;;;;;;;;;;;;24.45;51.06;99026.00;7314001;19;131228;-38
2022/06/22 11:13:13;;;;;;;;;;;;;;;24.48;51.15;99026.66;7307279;19;130402;-32
2022/06/22 11:16:17;;;;;;;;;;;;;;;24.48;51.22;99029.28;7314835;19;129409;-32
2022/06/22 11:18:51;;;;;;;;;;;;;;;24.46;50.85;99022.38;7305109;19;129549;-39
2022/06/22 11:21:23;;;;;;;;;;;;;;;24.46;51.11;99027.63;7307013;19;130193;-36
2022/06/22 11:23:51;;;;;;;;;;;;;;;24.43;50.96;99024.53;7309213;19;129704;-36
2022/06/22 11:32:04;;;;;;;;;;;;;;;24.46;51.43;99017.13;7313094;19;129144;-40
2022/06/22 11:34:48;;;;;;;;;;;;;;;24.46;51.15;99019.75;7307378;19;130941;-37
2022/06/22 11:37:13;;;;;;;;;;;;;;;24.46;51.30;99011.88;7308592;19;129556;-32
2022/06/22 11:39:48;;;;;;;;;;;;;;;24.46;52.00;99009.25;7306985;19;130682;-38
2022/06/22 11:42:28;;;;;;;;;;;;;;;24.48;51.64;99012.53;7312095;19;131786;-33
2022/06/22 11:48:00;;;;;;;;;;;;;;;24.46;52.02;99011.88;7312237;19;130169;-37
2022/06/22 11:50:31;;;;;;;;;;;;;;;24.44;51.99;99003.34;7314636;19;129094;-34
2022/06/22 11:53:05;;;;;;;;;;;;;;;24.46;52.35;99006.63;7313813;19;129529;-42
2022/06/22 11:55:33;;;;;;;;;;;;;;;24.44;51.59;99002.53;7313788;19;130125;-34
2022/06/22 11:58:37;;;;;;;;;;;;;;;24.45;51.77;98999.72;7310805;19;129344;-36
2022/06/22 12:01:14;;;;;;;;;;;;;;;24.45;52.24;98993.66;7308596;19;129136;-32
2022/06/22 12:03:45;;;;;;;;;;;;;;;24.44;51.90;98990.19;7309398;19;130083;-40
2022/06/22 12:06:22;;;;;;;;;;;;;;;24.44;52.45;98982.31;7310795;19;129706;-33
2022/06/22 12:08:58;;;;;;;;;;;;;;;24.46;52.57;98990.84;7310115;19;129513;-32
2022/06/22 12:11:23;;;;;;;;;;;;;;;24.45;52.36;98988.41;7312904;19;131453;-35
2022/06/22 12:16:44;;;;;;;;;;;;;;;24.45;52.60;98983.13;7313753;19;129248;-33
2022/06/22 12:19:15;;;;;;;;;;;;;;;24.45;52.73;98989.22;7311166;19;128834;-36
2022/06/22 12:21:46;;;;;;;;;;;;;;;24.37;52.07;98980.56;7312984;19;128821;-38
2022/06/22 12:24:21;;;;;;;;;;;;;;;24.45;52.85;98991.84;7312370;19;130172;-37
2022/06/22 12:26:52;;;;;;;;;;;;;;;24.38;52.62;98972.50;7311236;19;130329;-35
2022/06/22 12:29:23;;;;;;;;;;;;;;;24.44;52.95;98987.56;7311440;19;129277;-35
2022/06/22 12:31:51;;;;;;;;;;;;;;;24.44;52.29;98977.06;7312747;19;130293;-31
2022/06/22 12:34:25;;;;;;;;;;;;;;;24.44;52.71;98974.44;7313785;19;129472;-44
2022/06/22 12:36:52;;;;;;;;;;;;;;;24.45;52.36;98973.47;7309442;19;131165;-36
2022/06/22 12:39:21;;;;;;;;;;;;;;;24.46;53.08;98975.09;7303383;19;128814;-37
2022/06/22 12:41:54;;;;;;;;;;;;;;;24.46;53.23;98975.09;7307888;19;129264;-36
2022/06/22 12:44:34;;;;;;;;;;;;;;;24.45;52.48;98978.72;7311462;19;130298;-41
2022/06/22 12:47:14;;;;;;;;;;;;;;;24.45;53.16;98980.50;7310943;19;129317;-34
2022/06/22 12:49:46;;;;;;;;;;;;;;;24.38;52.50;98964.63;7309406;19;129149;-38
2022/06/22 12:52:25;;;;;;;;;;;;;;;24.46;52.60;98974.28;7312148;19;129227;-39
2022/06/22 12:55:00;;;;;;;;;;;;;;;24.46;53.24;98975.09;7311339;19;130073;-32
2022/06/22 12:57:31;;;;;;;;;;;;;;;24.48;52.96;98971.47;7307625;19;131924;-43
2022/06/22 13:00:05;;;;;;;;;;;;;;;24.39;52.99;98963.63;7312507;19;129690;-33
2022/06/22 13:02:32;;;;;;;;;;;;;;;24.48;52.93;98971.47;7311622;19;129413;-42
2022/06/22 13:05:04;;;;;;;;;;;;;;;24.46;52.94;98969.81;7311826;19;130106;-33
2022/06/22 13:07:32;;;;;;;;;;;;;;;24.46;53.42;98959.31;7308317;19;130166;-33
2022/06/22 13:09:57;;;;;;;;;;;;;;;24.45;52.76;98948.97;7311069;19;129129;-38
2022/06/22 13:12:31;;;;;;;;;;;;;;;24.48;52.95;98953.88;7311290;19;129199;-36
2022/06/22 13:15:26;;;;;;;;;;;;;;;24.48;52.80;98958.34;7311987;19;129166;-33
2022/06/22 13:17:54;;;;;;;;;;;;;;;24.47;53.09;98949.63;7305731;19;130457;-42
2022/06/22 13:20:29;;;;;;;;;;;;;;;24.40;53.04;98938.16;7310321;19;129134;-33
2022/06/22 13:23:14;;;;;;;;;;;;;;;24.45;53.38;98944.56;7311333;19;129281;-40
2022/06/22 13:25:48;;;;;;;;;;;;;;;24.48;53.25;98947.84;7309165;19;131389;-34
2022/06/22 13:28:21;;;;;;;;;;;;;;;24.46;53.25;98940.91;7307964;19;129501;-33